sensor_id;sensor_type;location;lat;lon;timestamp;P1;durP1;ratioP1;P2;durP2;ratioP2
72501;SDS011;60524;49.874;8.652;2023-04-23T00:01:16;6.50;;;3.90;;
72501;SDS011;60524;49.874;8.652;2023-04-23T00:03:42;6.72;;;3.92;;
72501;SDS011;60524;49.874;8.652;2023-04-23T00:06:08;7.32;;;4.20;;
72501;SDS011;60524;49.874;8.652;2023-04-23T00:08:40;8.95;;;4.63;;
72501;SDS011;60524;49.874;8.652;2023-04-23T00:11:06;8.57;;;3.75;;
72501;SDS011;60524;49.874;8.652;2023-04-23T00:13:32;8.60;;;4.00;;
72501;SDS011;60524;49.874;8.652;2023-04-23T00:15:59;6.75;;;3.80;;
72501;SDS011;60524;49.874;8.652;2023-04-23T00:18:24;7.20;;;3.45;;
72501;SDS011;60524;49.874;8.652;2023-04-23T00:20:50;8.43;;;4.20;;
72501;SDS011;60524;49.874;8.652;2023-04-23T00:23:15;7.22;;;4.10;;
72501;SDS011;60524;49.874;8.652;2023-04-23T00:25:40;8.13;;;4.40;;
72501;SDS011;60524;49.874;8.652;2023-04-23T00:28:06;7.77;;;4.50;;
72501;SDS011;60524;49.874;8.652;2023-04-23T00:30:31;8.60;;;4.93;;
72501;SDS011;60524;49.874;8.652;2023-04-23T00:32:57;9.02;;;4.50;;
72501;SDS011;60524;49.874;8.652;2023-04-23T00:35:22;8.23;;;5.13;;
72501;SDS011;60524;49.874;8.652;2023-04-23T00:37:48;9.47;;;4.60;;
72501;SDS011;60524;49.874;8.652;2023-04-23T00:40:13;7.03;;;4.47;;
72501;SDS011;60524;49.874;8.652;2023-04-23T00:42:38;9.50;;;4.40;;
72501;SDS011;60524;49.874;8.652;2023-04-23T00:45:07;10.52;;;4.60;;
72501;SDS011;60524;49.874;8.652;2023-04-23T00:47:32;8.57;;;4.70;;
72501;SDS011;60524;49.874;8.652;2023-04-23T00:49:58;8.30;;;4.20;;
72501;SDS011;60524;49.874;8.652;2023-04-23T00:52:24;9.02;;;4.65;;
72501;SDS011;60524;49.874;8.652;2023-04-23T00:54:49;8.97;;;4.83;;
72501;SDS011;60524;49.874;8.652;2023-04-23T00:57:14;9.10;;;4.90;;
72501;SDS011;60524;49.874;8.652;2023-04-23T00:59:40;10.30;;;5.32;;
72501;SDS011;60524;49.874;8.652;2023-04-23T01:02:06;8.25;;;5.13;;
72501;SDS011;60524;49.874;8.652;2023-04-23T01:04:31;10.60;;;4.70;;
72501;SDS011;60524;49.874;8.652;2023-04-23T01:06:57;8.32;;;5.18;;
72501;SDS011;60524;49.874;8.652;2023-04-23T01:09:23;10.77;;;5.47;;
72501;SDS011;60524;49.874;8.652;2023-04-23T01:11:49;9.30;;;5.45;;
72501;SDS011;60524;49.874;8.652;2023-04-23T01:14:15;8.52;;;5.28;;
72501;SDS011;60524;49.874;8.652;2023-04-23T01:16:41;10.73;;;5.90;;
72501;SDS011;60524;49.874;8.652;2023-04-23T01:19:07;11.23;;;4.87;;
72501;SDS011;60524;49.874;8.652;2023-04-23T01:21:34;9.25;;;5.72;;
72501;SDS011;60524;49.874;8.652;2023-04-23T01:24:01;9.32;;;5.40;;
72501;SDS011;60524;49.874;8.652;2023-04-23T01:26:27;10.43;;;5.60;;
72501;SDS011;60524;49.874;8.652;2023-04-23T01:28:53;8.63;;;5.40;;
72501;SDS011;60524;49.874;8.652;2023-04-23T01:31:18;7.93;;;5.30;;
72501;SDS011;60524;49.874;8.652;2023-04-23T01:33:43;10.40;;;4.90;;
72501;SDS011;60524;49.874;8.652;2023-04-23T01:36:09;7.97;;;4.78;;
72501;SDS011;60524;49.874;8.652;2023-04-23T01:38:37;9.65;;;5.00;;
72501;SDS011;60524;49.874;8.652;2023-04-23T01:41:03;9.20;;;5.60;;
72501;SDS011;60524;49.874;8.652;2023-04-23T01:43:29;10.27;;;6.05;;
72501;SDS011;60524;49.874;8.652;2023-04-23T01:45:55;15.98;;;5.60;;
72501;SDS011;60524;49.874;8.652;2023-04-23T01:48:21;13.77;;;5.97;;
72501;SDS011;60524;49.874;8.652;2023-04-23T01:50:47;8.35;;;4.50;;
72501;SDS011;60524;49.874;8.652;2023-04-23T01:53:13;11.75;;;5.55;;
72501;SDS011;60524;49.874;8.652;2023-04-23T01:55:44;12.85;;;5.95;;
72501;SDS011;60524;49.874;8.652;2023-04-23T01:58:10;11.45;;;5.30;;
72501;SDS011;60524;49.874;8.652;2023-04-23T02:00:35;9.20;;;5.10;;
72501;SDS011;60524;49.874;8.652;2023-04-23T02:03:01;10.70;;;5.07;;
72501;SDS011;60524;49.874;8.652;2023-04-23T02:05:26;9.15;;;4.78;;
72501;SDS011;60524;49.874;8.652;2023-04-23T02:07:52;13.85;;;5.38;;
72501;SDS011;60524;49.874;8.652;2023-04-23T02:10:17;7.87;;;5.20;;
72501;SDS011;60524;49.874;8.652;2023-04-23T02:12:45;13.30;;;5.40;;
72501;SDS011;60524;49.874;8.652;2023-04-23T02:15:11;10.35;;;5.00;;
72501;SDS011;60524;49.874;8.652;2023-04-23T02:17:36;11.00;;;4.80;;
72501;SDS011;60524;49.874;8.652;2023-04-23T02:20:03;9.50;;;5.13;;
72501;SDS011;60524;49.874;8.652;2023-04-23T02:22:30;8.82;;;4.82;;
72501;SDS011;60524;49.874;8.652;2023-04-23T02:24:55;7.32;;;4.57;;
72501;SDS011;60524;49.874;8.652;2023-04-23T02:27:22;6.60;;;4.28;;
72501;SDS011;60524;49.874;8.652;2023-04-23T02:29:47;8.47;;;4.47;;
72501;SDS011;60524;49.874;8.652;2023-04-23T02:32:13;7.72;;;4.63;;
72501;SDS011;60524;49.874;8.652;2023-04-23T02:34:38;8.93;;;5.10;;
72501;SDS011;60524;49.874;8.652;2023-04-23T02:37:03;6.83;;;4.63;;
72501;SDS011;60524;49.874;8.652;2023-04-23T02:39:29;8.88;;;4.30;;
72501;SDS011;60524;49.874;8.652;2023-04-23T02:41:55;7.75;;;4.45;;
72501;SDS011;60524;49.874;8.652;2023-04-23T02:44:20;5.65;;;3.92;;
72501;SDS011;60524;49.874;8.652;2023-04-23T02:46:46;8.38;;;4.75;;
72501;SDS011;60524;49.874;8.652;2023-04-23T02:49:11;8.73;;;4.70;;
72501;SDS011;60524;49.874;8.652;2023-04-23T02:51:36;7.00;;;4.20;;
72501;SDS011;60524;49.874;8.652;2023-04-23T02:54:01;7.00;;;4.73;;
72501;SDS011;60524;49.874;8.652;2023-04-23T02:56:27;7.28;;;4.60;;
72501;SDS011;60524;49.874;8.652;2023-04-23T02:58:53;8.73;;;4.68;;
72501;SDS011;60524;49.874;8.652;2023-04-23T03:01:18;7.40;;;4.17;;
72501;SDS011;60524;49.874;8.652;2023-04-23T03:03:43;7.10;;;4.07;;
72501;SDS011;60524;49.874;8.652;2023-04-23T03:06:09;8.43;;;4.93;;
72501;SDS011;60524;49.874;8.652;2023-04-23T03:08:34;7.85;;;4.70;;
72501;SDS011;60524;49.874;8.652;2023-04-23T03:10:59;6.50;;;4.47;;
72501;SDS011;60524;49.874;8.652;2023-04-23T03:13:25;8.93;;;4.30;;
72501;SDS011;60524;49.874;8.652;2023-04-23T03:15:50;5.68;;;4.30;;
72501;SDS011;60524;49.874;8.652;2023-04-23T03:18:17;7.45;;;4.25;;
72501;SDS011;60524;49.874;8.652;2023-04-23T03:20:42;7.57;;;4.50;;
72501;SDS011;60524;49.874;8.652;2023-04-23T03:23:07;8.53;;;4.43;;
72501;SDS011;60524;49.874;8.652;2023-04-23T03:25:33;8.37;;;4.77;;
72501;SDS011;60524;49.874;8.652;2023-04-23T03:27:58;9.15;;;4.57;;
72501;SDS011;60524;49.874;8.652;2023-04-23T03:30:24;8.38;;;5.05;;
72501;SDS011;60524;49.874;8.652;2023-04-23T03:32:49;9.30;;;4.63;;
72501;SDS011;60524;49.874;8.652;2023-04-23T03:35:14;10.52;;;5.63;;
72501;SDS011;60524;49.874;8.652;2023-04-23T03:37:40;7.18;;;4.55;;
72501;SDS011;60524;49.874;8.652;2023-04-23T03:40:06;7.07;;;4.87;;
72501;SDS011;60524;49.874;8.652;2023-04-23T03:42:32;14.57;;;5.20;;
72501;SDS011;60524;49.874;8.652;2023-04-23T03:44:58;8.57;;;5.05;;
72501;SDS011;60524;49.874;8.652;2023-04-23T03:47:24;10.27;;;5.47;;
72501;SDS011;60524;49.874;8.652;2023-04-23T03:49:49;7.70;;;5.10;;
72501;SDS011;60524;49.874;8.652;2023-04-23T03:52:14;7.67;;;5.10;;
72501;SDS011;60524;49.874;8.652;2023-04-23T03:54:40;12.80;;;5.72;;
72501;SDS011;60524;49.874;8.652;2023-04-23T03:57:05;10.07;;;5.60;;
72501;SDS011;60524;49.874;8.652;2023-04-23T03:59:31;9.70;;;5.53;;
72501;SDS011;60524;49.874;8.652;2023-04-23T04:01:56;10.97;;;5.23;;
72501;SDS011;60524;49.874;8.652;2023-04-23T04:04:22;10.05;;;5.78;;
72501;SDS011;60524;49.874;8.652;2023-04-23T04:06:47;8.37;;;5.60;;
72501;SDS011;60524;49.874;8.652;2023-04-23T04:09:12;9.73;;;5.37;;
72501;SDS011;60524;49.874;8.652;2023-04-23T04:11:38;8.33;;;5.03;;
72501;SDS011;60524;49.874;8.652;2023-04-23T04:14:03;11.60;;;5.30;;
72501;SDS011;60524;49.874;8.652;2023-04-23T04:16:28;9.13;;;5.00;;
72501;SDS011;60524;49.874;8.652;2023-04-23T04:18:54;9.87;;;5.57;;
72501;SDS011;60524;49.874;8.652;2023-04-23T04:21:19;6.63;;;4.80;;
72501;SDS011;60524;49.874;8.652;2023-04-23T04:23:44;7.87;;;4.67;;
72501;SDS011;60524;49.874;8.652;2023-04-23T04:26:09;7.77;;;4.97;;
72501;SDS011;60524;49.874;8.652;2023-04-23T04:28:35;7.57;;;4.87;;
72501;SDS011;60524;49.874;8.652;2023-04-23T04:31:01;7.57;;;5.00;;
72501;SDS011;60524;49.874;8.652;2023-04-23T04:33:27;9.82;;;5.47;;
72501;SDS011;60524;49.874;8.652;2023-04-23T04:35:53;9.10;;;5.18;;
72501;SDS011;60524;49.874;8.652;2023-04-23T04:38:18;9.30;;;4.68;;
72501;SDS011;60524;49.874;8.652;2023-04-23T04:40:44;6.87;;;4.00;;
72501;SDS011;60524;49.874;8.652;2023-04-23T04:43:09;7.07;;;4.88;;
72501;SDS011;60524;49.874;8.652;2023-04-23T04:45:34;8.53;;;4.53;;
72501;SDS011;60524;49.874;8.652;2023-04-23T04:48:00;10.47;;;5.27;;
72501;SDS011;60524;49.874;8.652;2023-04-23T04:50:25;8.40;;;4.80;;
72501;SDS011;60524;49.874;8.652;2023-04-23T04:52:50;7.13;;;4.77;;
72501;SDS011;60524;49.874;8.652;2023-04-23T04:55:16;10.27;;;4.83;;
72501;SDS011;60524;49.874;8.652;2023-04-23T04:57:41;10.30;;;4.90;;
72501;SDS011;60524;49.874;8.652;2023-04-23T05:00:28;8.43;;;4.87;;
72501;SDS011;60524;49.874;8.652;2023-04-23T05:02:53;8.02;;;4.85;;
72501;SDS011;60524;49.874;8.652;2023-04-23T05:05:20;7.13;;;4.50;;
72501;SDS011;60524;49.874;8.652;2023-04-23T05:07:46;8.40;;;4.60;;
72501;SDS011;60524;49.874;8.652;2023-04-23T05:10:12;8.13;;;4.10;;
72501;SDS011;60524;49.874;8.652;2023-04-23T05:12:38;8.43;;;4.53;;
72501;SDS011;60524;49.874;8.652;2023-04-23T05:15:05;8.57;;;4.53;;
72501;SDS011;60524;49.874;8.652;2023-04-23T05:17:32;7.40;;;4.55;;
72501;SDS011;60524;49.874;8.652;2023-04-23T05:19:57;6.27;;;4.20;;
72501;SDS011;60524;49.874;8.652;2023-04-23T05:22:22;8.60;;;4.50;;
72501;SDS011;60524;49.874;8.652;2023-04-23T05:24:48;7.97;;;4.37;;
72501;SDS011;60524;49.874;8.652;2023-04-23T05:27:13;6.53;;;4.03;;
72501;SDS011;60524;49.874;8.652;2023-04-23T05:29:38;6.60;;;4.07;;
72501;SDS011;60524;49.874;8.652;2023-04-23T05:32:04;15.55;;;4.30;;
72501;SDS011;60524;49.874;8.652;2023-04-23T05:34:29;7.88;;;4.32;;
72501;SDS011;60524;49.874;8.652;2023-04-23T05:36:54;7.77;;;4.67;;
72501;SDS011;60524;49.874;8.652;2023-04-23T05:39:20;8.20;;;3.93;;
72501;SDS011;60524;49.874;8.652;2023-04-23T05:41:45;7.50;;;4.40;;
72501;SDS011;60524;49.874;8.652;2023-04-23T05:44:11;6.63;;;4.17;;
72501;SDS011;60524;49.874;8.652;2023-04-23T05:46:36;6.20;;;3.97;;
72501;SDS011;60524;49.874;8.652;2023-04-23T05:49:02;5.60;;;3.60;;
72501;SDS011;60524;49.874;8.652;2023-04-23T05:51:27;9.50;;;4.37;;
72501;SDS011;60524;49.874;8.652;2023-04-23T05:53:53;8.53;;;3.93;;
72501;SDS011;60524;49.874;8.652;2023-04-23T05:56:18;5.53;;;3.67;;
72501;SDS011;60524;49.874;8.652;2023-04-23T05:58:43;7.47;;;3.90;;
72501;SDS011;60524;49.874;8.652;2023-04-23T06:01:09;5.67;;;3.60;;
72501;SDS011;60524;49.874;8.652;2023-04-23T06:03:34;6.67;;;3.87;;
72501;SDS011;60524;49.874;8.652;2023-04-23T06:06:00;5.82;;;3.88;;
72501;SDS011;60524;49.874;8.652;2023-04-23T06:08:26;5.83;;;4.10;;
72501;SDS011;60524;49.874;8.652;2023-04-23T06:10:51;5.43;;;3.23;;
72501;SDS011;60524;49.874;8.652;2023-04-23T06:13:16;9.07;;;3.95;;
72501;SDS011;60524;49.874;8.652;2023-04-23T06:15:42;8.57;;;4.03;;
72501;SDS011;60524;49.874;8.652;2023-04-23T06:18:07;6.87;;;3.53;;
72501;SDS011;60524;49.874;8.652;2023-04-23T06:20:34;6.70;;;3.50;;
72501;SDS011;60524;49.874;8.652;2023-04-23T06:22:59;6.37;;;3.37;;
72501;SDS011;60524;49.874;8.652;2023-04-23T06:25:26;5.28;;;3.10;;
72501;SDS011;60524;49.874;8.652;2023-04-23T06:27:51;4.80;;;3.33;;
72501;SDS011;60524;49.874;8.652;2023-04-23T06:30:17;5.07;;;2.83;;
72501;SDS011;60524;49.874;8.652;2023-04-23T06:32:42;5.90;;;3.23;;
72501;SDS011;60524;49.874;8.652;2023-04-23T06:35:07;4.53;;;2.90;;
72501;SDS011;60524;49.874;8.652;2023-04-23T06:37:33;5.40;;;3.28;;
72501;SDS011;60524;49.874;8.652;2023-04-23T06:39:58;4.23;;;3.13;;
72501;SDS011;60524;49.874;8.652;2023-04-23T06:42:24;5.97;;;2.67;;
72501;SDS011;60524;49.874;8.652;2023-04-23T06:44:49;4.30;;;3.03;;
72501;SDS011;60524;49.874;8.652;2023-04-23T06:47:15;6.18;;;3.05;;
72501;SDS011;60524;49.874;8.652;2023-04-23T06:49:41;5.57;;;2.80;;
72501;SDS011;60524;49.874;8.652;2023-04-23T06:52:06;7.40;;;2.70;;
72501;SDS011;60524;49.874;8.652;2023-04-23T06:54:31;3.93;;;2.40;;
72501;SDS011;60524;49.874;8.652;2023-04-23T06:56:56;3.93;;;2.60;;
72501;SDS011;60524;49.874;8.652;2023-04-23T06:59:22;4.73;;;2.23;;
72501;SDS011;60524;49.874;8.652;2023-04-23T07:01:47;4.87;;;2.60;;
72501;SDS011;60524;49.874;8.652;2023-04-23T07:04:12;4.47;;;2.65;;
72501;SDS011;60524;49.874;8.652;2023-04-23T07:06:38;3.53;;;2.33;;
72501;SDS011;60524;49.874;8.652;2023-04-23T07:09:03;3.80;;;2.63;;
72501;SDS011;60524;49.874;8.652;2023-04-23T07:11:28;4.23;;;2.73;;
72501;SDS011;60524;49.874;8.652;2023-04-23T07:13:55;3.92;;;2.65;;
72501;SDS011;60524;49.874;8.652;2023-04-23T07:16:21;3.90;;;2.38;;
72501;SDS011;60524;49.874;8.652;2023-04-23T07:18:48;4.07;;;2.15;;
72501;SDS011;60524;49.874;8.652;2023-04-23T07:21:13;4.57;;;2.65;;
72501;SDS011;60524;49.874;8.652;2023-04-23T07:23:38;3.70;;;2.50;;
72501;SDS011;60524;49.874;8.652;2023-04-23T07:26:03;4.57;;;2.60;;
72501;SDS011;60524;49.874;8.652;2023-04-23T07:28:29;4.90;;;2.73;;
72501;SDS011;60524;49.874;8.652;2023-04-23T07:30:54;5.95;;;3.17;;
72501;SDS011;60524;49.874;8.652;2023-04-23T07:33:20;4.95;;;2.85;;
72501;SDS011;60524;49.874;8.652;2023-04-23T07:35:45;4.22;;;3.10;;
72501;SDS011;60524;49.874;8.652;2023-04-23T07:38:10;5.80;;;3.30;;
72501;SDS011;60524;49.874;8.652;2023-04-23T07:40:36;4.20;;;2.30;;
72501;SDS011;60524;49.874;8.652;2023-04-23T07:43:01;5.47;;;3.07;;
72501;SDS011;60524;49.874;8.652;2023-04-23T07:45:26;4.57;;;2.67;;
72501;SDS011;60524;49.874;8.652;2023-04-23T07:47:52;5.53;;;2.87;;
72501;SDS011;60524;49.874;8.652;2023-04-23T07:50:17;5.17;;;2.97;;
72501;SDS011;60524;49.874;8.652;2023-04-23T07:52:42;4.93;;;3.60;;
72501;SDS011;60524;49.874;8.652;2023-04-23T07:55:09;4.78;;;3.08;;
72501;SDS011;60524;49.874;8.652;2023-04-23T07:57:34;5.93;;;3.50;;
72501;SDS011;60524;49.874;8.652;2023-04-23T07:59:59;7.30;;;3.88;;
72501;SDS011;60524;49.874;8.652;2023-04-23T08:02:25;5.55;;;3.53;;
72501;SDS011;60524;49.874;8.652;2023-04-23T08:04:51;6.82;;;3.80;;
72501;SDS011;60524;49.874;8.652;2023-04-23T08:07:17;5.13;;;3.03;;
72501;SDS011;60524;49.874;8.652;2023-04-23T08:09:42;4.27;;;2.97;;
72501;SDS011;60524;49.874;8.652;2023-04-23T08:12:10;4.73;;;3.67;;
72501;SDS011;60524;49.874;8.652;2023-04-23T08:17:00;5.60;;;2.80;;
72501;SDS011;60524;49.874;8.652;2023-04-23T08:19:25;5.07;;;3.47;;
72501;SDS011;60524;49.874;8.652;2023-04-23T08:21:55;6.45;;;3.63;;
72501;SDS011;60524;49.874;8.652;2023-04-23T08:24:20;5.43;;;3.13;;
72501;SDS011;60524;49.874;8.652;2023-04-23T08:26:46;4.17;;;3.30;;
72501;SDS011;60524;49.874;8.652;2023-04-23T08:29:12;5.20;;;3.45;;
72501;SDS011;60524;49.874;8.652;2023-04-23T08:31:37;4.25;;;3.13;;
72501;SDS011;60524;49.874;8.652;2023-04-23T08:34:02;4.80;;;3.07;;
72501;SDS011;60524;49.874;8.652;2023-04-23T08:36:28;6.43;;;3.47;;
72501;SDS011;60524;49.874;8.652;2023-04-23T08:38:53;6.73;;;3.40;;
72501;SDS011;60524;49.874;8.652;2023-04-23T08:41:19;6.17;;;2.93;;
72501;SDS011;60524;49.874;8.652;2023-04-23T08:43:49;5.68;;;3.40;;
72501;SDS011;60524;49.874;8.652;2023-04-23T08:46:28;4.75;;;2.97;;
72501;SDS011;60524;49.874;8.652;2023-04-23T08:48:56;3.75;;;2.90;;
72501;SDS011;60524;49.874;8.652;2023-04-23T08:51:23;9.15;;;3.13;;
72501;SDS011;60524;49.874;8.652;2023-04-23T08:53:50;4.63;;;2.78;;
72501;SDS011;60524;49.874;8.652;2023-04-23T08:56:19;6.82;;;2.90;;
72501;SDS011;60524;49.874;8.652;2023-04-23T08:58:45;3.78;;;2.55;;
72501;SDS011;60524;49.874;8.652;2023-04-23T09:01:11;2.88;;;2.22;;
72501;SDS011;60524;49.874;8.652;2023-04-23T09:03:36;3.33;;;2.40;;
72501;SDS011;60524;49.874;8.652;2023-04-23T09:06:02;3.63;;;2.70;;
72501;SDS011;60524;49.874;8.652;2023-04-23T09:08:28;2.95;;;2.05;;
72501;SDS011;60524;49.874;8.652;2023-04-23T09:10:54;4.88;;;2.30;;
72501;SDS011;60524;49.874;8.652;2023-04-23T09:13:23;2.85;;;2.20;;
72501;SDS011;60524;49.874;8.652;2023-04-23T09:15:48;4.80;;;2.50;;
72501;SDS011;60524;49.874;8.652;2023-04-23T09:18:13;3.40;;;2.40;;
72501;SDS011;60524;49.874;8.652;2023-04-23T09:20:38;5.20;;;2.40;;
72501;SDS011;60524;49.874;8.652;2023-04-23T09:23:07;6.10;;;2.63;;
72501;SDS011;60524;49.874;8.652;2023-04-23T09:25:33;3.40;;;2.25;;
72501;SDS011;60524;49.874;8.652;2023-04-23T09:27:58;5.27;;;2.80;;
72501;SDS011;60524;49.874;8.652;2023-04-23T09:30:25;5.72;;;2.17;;
72501;SDS011;60524;49.874;8.652;2023-04-23T09:32:51;4.97;;;2.80;;
72501;SDS011;60524;49.874;8.652;2023-04-23T09:35:17;7.97;;;2.63;;
72501;SDS011;60524;49.874;8.652;2023-04-23T09:37:49;5.15;;;2.83;;
72501;SDS011;60524;49.874;8.652;2023-04-23T09:40:17;3.60;;;1.98;;
72501;SDS011;60524;49.874;8.652;2023-04-23T09:42:47;5.20;;;2.47;;
72501;SDS011;60524;49.874;8.652;2023-04-23T09:45:14;4.00;;;2.17;;
72501;SDS011;60524;49.874;8.652;2023-04-23T09:50:15;3.85;;;1.67;;
72501;SDS011;60524;49.874;8.652;2023-04-23T09:52:40;3.35;;;1.80;;
72501;SDS011;60524;49.874;8.652;2023-04-23T09:55:05;2.57;;;1.77;;
72501;SDS011;60524;49.874;8.652;2023-04-23T09:57:39;3.47;;;1.75;;
72501;SDS011;60524;49.874;8.652;2023-04-23T10:02:44;2.20;;;1.60;;
72501;SDS011;60524;49.874;8.652;2023-04-23T10:05:18;4.53;;;1.58;;
72501;SDS011;60524;49.874;8.652;2023-04-23T10:07:45;3.53;;;2.00;;
72501;SDS011;60524;49.874;8.652;2023-04-23T10:10:11;4.47;;;2.40;;
72501;SDS011;60524;49.874;8.652;2023-04-23T10:12:37;2.13;;;1.60;;
72501;SDS011;60524;49.874;8.652;2023-04-23T10:15:05;4.13;;;1.90;;
72501;SDS011;60524;49.874;8.652;2023-04-23T10:17:31;5.88;;;2.42;;
72501;SDS011;60524;49.874;8.652;2023-04-23T10:19:57;3.28;;;2.05;;
72501;SDS011;60524;49.874;8.652;2023-04-23T10:22:23;5.10;;;2.08;;
72501;SDS011;60524;49.874;8.652;2023-04-23T10:24:52;3.17;;;1.77;;
72501;SDS011;60524;49.874;8.652;2023-04-23T10:27:19;3.20;;;2.00;;
72501;SDS011;60524;49.874;8.652;2023-04-23T10:29:46;5.20;;;1.65;;
72501;SDS011;60524;49.874;8.652;2023-04-23T10:32:12;4.65;;;1.67;;
72501;SDS011;60524;49.874;8.652;2023-04-23T10:34:38;3.05;;;1.60;;
72501;SDS011;60524;49.874;8.652;2023-04-23T10:37:05;3.78;;;1.80;;
72501;SDS011;60524;49.874;8.652;2023-04-23T10:39:32;3.03;;;1.83;;
72501;SDS011;60524;49.874;8.652;2023-04-23T10:41:58;3.28;;;2.00;;
72501;SDS011;60524;49.874;8.652;2023-04-23T10:44:31;4.35;;;2.30;;
72501;SDS011;60524;49.874;8.652;2023-04-23T10:46:58;1.90;;;1.50;;
72501;SDS011;60524;49.874;8.652;2023-04-23T10:49:28;4.18;;;1.58;;
72501;SDS011;60524;49.874;8.652;2023-04-23T10:52:02;2.83;;;1.35;;
72501;SDS011;60524;49.874;8.652;2023-04-23T10:54:29;3.17;;;1.90;;
72501;SDS011;60524;49.874;8.652;2023-04-23T10:56:59;3.22;;;1.63;;
72501;SDS011;60524;49.874;8.652;2023-04-23T10:59:26;3.22;;;1.60;;
72501;SDS011;60524;49.874;8.652;2023-04-23T11:02:06;3.90;;;1.80;;
72501;SDS011;60524;49.874;8.652;2023-04-23T11:04:32;3.50;;;1.70;;
72501;SDS011;60524;49.874;8.652;2023-04-23T11:07:09;2.25;;;1.38;;
72501;SDS011;60524;49.874;8.652;2023-04-23T11:09:36;4.63;;;1.42;;
72501;SDS011;60524;49.874;8.652;2023-04-23T11:14:45;2.95;;;1.73;;
72501;SDS011;60524;49.874;8.652;2023-04-23T11:17:12;4.38;;;1.65;;
72501;SDS011;60524;49.874;8.652;2023-04-23T11:19:38;3.35;;;1.67;;
72501;SDS011;60524;49.874;8.652;2023-04-23T11:22:05;5.10;;;2.00;;
72501;SDS011;60524;49.874;8.652;2023-04-23T11:26:58;3.97;;;2.07;;
72501;SDS011;60524;49.874;8.652;2023-04-23T11:29:24;3.35;;;1.92;;
72501;SDS011;60524;49.874;8.652;2023-04-23T11:31:51;5.35;;;2.50;;
72501;SDS011;60524;49.874;8.652;2023-04-23T11:34:17;4.88;;;2.33;;
72501;SDS011;60524;49.874;8.652;2023-04-23T11:36:43;3.58;;;2.10;;
72501;SDS011;60524;49.874;8.652;2023-04-23T11:39:08;3.92;;;1.73;;
72501;SDS011;60524;49.874;8.652;2023-04-23T11:41:34;2.97;;;1.70;;
72501;SDS011;60524;49.874;8.652;2023-04-23T11:44:00;2.63;;;1.42;;
72501;SDS011;60524;49.874;8.652;2023-04-23T11:46:25;2.60;;;1.50;;
72501;SDS011;60524;49.874;8.652;2023-04-23T11:48:51;2.27;;;1.53;;
72501;SDS011;60524;49.874;8.652;2023-04-23T11:51:16;5.75;;;1.55;;
72501;SDS011;60524;49.874;8.652;2023-04-23T11:53:45;2.70;;;1.57;;
72501;SDS011;60524;49.874;8.652;2023-04-23T11:56:11;4.45;;;1.77;;
72501;SDS011;60524;49.874;8.652;2023-04-23T11:58:36;2.93;;;1.70;;
72501;SDS011;60524;49.874;8.652;2023-04-23T12:01:01;3.60;;;1.70;;
72501;SDS011;60524;49.874;8.652;2023-04-23T12:03:27;4.10;;;1.70;;
72501;SDS011;60524;49.874;8.652;2023-04-23T12:05:53;3.63;;;1.65;;
72501;SDS011;60524;49.874;8.652;2023-04-23T12:08:20;4.45;;;1.70;;
72501;SDS011;60524;49.874;8.652;2023-04-23T12:10:49;2.38;;;1.30;;
72501;SDS011;60524;49.874;8.652;2023-04-23T12:13:22;3.58;;;1.73;;
72501;SDS011;60524;49.874;8.652;2023-04-23T12:15:56;3.42;;;1.92;;
72501;SDS011;60524;49.874;8.652;2023-04-23T12:18:41;4.72;;;1.63;;
72501;SDS011;60524;49.874;8.652;2023-04-23T12:21:08;2.90;;;1.08;;
72501;SDS011;60524;49.874;8.652;2023-04-23T12:23:35;1.92;;;1.30;;
72501;SDS011;60524;49.874;8.652;2023-04-23T12:26:01;3.50;;;1.17;;
72501;SDS011;60524;49.874;8.652;2023-04-23T12:28:30;4.38;;;1.20;;
72501;SDS011;60524;49.874;8.652;2023-04-23T12:30:59;1.90;;;1.20;;
72501;SDS011;60524;49.874;8.652;2023-04-23T12:33:29;2.13;;;1.42;;
72501;SDS011;60524;49.874;8.652;2023-04-23T12:35:54;2.22;;;1.10;;
72501;SDS011;60524;49.874;8.652;2023-04-23T12:38:24;3.00;;;1.20;;
72501;SDS011;60524;49.874;8.652;2023-04-23T12:40:53;3.15;;;1.52;;
72501;SDS011;60524;49.874;8.652;2023-04-23T12:43:19;3.15;;;1.45;;
72501;SDS011;60524;49.874;8.652;2023-04-23T12:45:45;3.03;;;1.27;;
72501;SDS011;60524;49.874;8.652;2023-04-23T12:48:11;5.90;;;1.43;;
72501;SDS011;60524;49.874;8.652;2023-04-23T12:50:36;8.65;;;3.65;;
72501;SDS011;60524;49.874;8.652;2023-04-23T12:53:02;2.63;;;1.60;;
72501;SDS011;60524;49.874;8.652;2023-04-23T12:55:28;1.85;;;1.20;;
72501;SDS011;60524;49.874;8.652;2023-04-23T12:57:53;2.67;;;1.10;;
72501;SDS011;60524;49.874;8.652;2023-04-23T13:00:18;3.87;;;2.00;;
72501;SDS011;60524;49.874;8.652;2023-04-23T13:02:44;3.23;;;1.80;;
72501;SDS011;60524;49.874;8.652;2023-04-23T13:05:09;5.82;;;2.78;;
72501;SDS011;60524;49.874;8.652;2023-04-23T13:07:35;3.47;;;1.45;;
72501;SDS011;60524;49.874;8.652;2023-04-23T13:10:00;3.40;;;1.20;;
72501;SDS011;60524;49.874;8.652;2023-04-23T13:12:25;4.30;;;2.30;;
72501;SDS011;60524;49.874;8.652;2023-04-23T13:14:51;3.42;;;1.80;;
72501;SDS011;60524;49.874;8.652;2023-04-23T13:17:16;2.90;;;1.40;;
72501;SDS011;60524;49.874;8.652;2023-04-23T13:19:42;3.22;;;1.67;;
72501;SDS011;60524;49.874;8.652;2023-04-23T13:22:07;1.80;;;1.20;;
72501;SDS011;60524;49.874;8.652;2023-04-23T13:24:32;2.20;;;1.10;;
72501;SDS011;60524;49.874;8.652;2023-04-23T13:26:57;3.47;;;1.73;;
72501;SDS011;60524;49.874;8.652;2023-04-23T13:29:23;4.70;;;1.10;;
72501;SDS011;60524;49.874;8.652;2023-04-23T13:31:51;2.58;;;1.25;;
72501;SDS011;60524;49.874;8.652;2023-04-23T13:34:17;1.25;;;0.90;;
72501;SDS011;60524;49.874;8.652;2023-04-23T13:36:42;2.43;;;1.17;;
72501;SDS011;60524;49.874;8.652;2023-04-23T13:39:08;1.63;;;0.70;;
72501;SDS011;60524;49.874;8.652;2023-04-23T13:41:33;4.00;;;0.85;;
72501;SDS011;60524;49.874;8.652;2023-04-23T13:43:59;1.83;;;1.10;;
72501;SDS011;60524;49.874;8.652;2023-04-23T13:46:24;3.50;;;1.70;;
72501;SDS011;60524;49.874;8.652;2023-04-23T13:48:51;4.13;;;1.85;;
72501;SDS011;60524;49.874;8.652;2023-04-23T13:51:17;2.15;;;1.27;;
72501;SDS011;60524;49.874;8.652;2023-04-23T13:53:42;2.27;;;1.30;;
72501;SDS011;60524;49.874;8.652;2023-04-23T13:56:08;3.27;;;1.10;;
72501;SDS011;60524;49.874;8.652;2023-04-23T13:58:33;3.23;;;1.00;;
72501;SDS011;60524;49.874;8.652;2023-04-23T14:00:58;2.27;;;1.50;;
72501;SDS011;60524;49.874;8.652;2023-04-23T14:03:23;5.67;;;2.27;;
72501;SDS011;60524;49.874;8.652;2023-04-23T14:05:49;1.75;;;1.05;;
72501;SDS011;60524;49.874;8.652;2023-04-23T14:08:14;2.10;;;1.10;;
72501;SDS011;60524;49.874;8.652;2023-04-23T14:10:39;6.93;;;2.80;;
72501;SDS011;60524;49.874;8.652;2023-04-23T14:13:05;3.95;;;1.40;;
72501;SDS011;60524;49.874;8.652;2023-04-23T14:15:30;3.83;;;1.00;;
72501;SDS011;60524;49.874;8.652;2023-04-23T14:17:55;2.27;;;1.20;;
72501;SDS011;60524;49.874;8.652;2023-04-23T14:20:21;1.97;;;1.20;;
72501;SDS011;60524;49.874;8.652;2023-04-23T14:22:47;3.03;;;1.75;;
72501;SDS011;60524;49.874;8.652;2023-04-23T14:25:14;1.40;;;0.90;;
72501;SDS011;60524;49.874;8.652;2023-04-23T14:27:46;2.58;;;1.00;;
72501;SDS011;60524;49.874;8.652;2023-04-23T14:30:15;2.55;;;0.90;;
72501;SDS011;60524;49.874;8.652;2023-04-23T14:32:43;2.22;;;1.00;;
72501;SDS011;60524;49.874;8.652;2023-04-23T14:35:09;1.83;;;1.02;;
72501;SDS011;60524;49.874;8.652;2023-04-23T14:37:36;2.88;;;1.45;;
72501;SDS011;60524;49.874;8.652;2023-04-23T14:40:01;2.33;;;1.73;;
72501;SDS011;60524;49.874;8.652;2023-04-23T14:42:26;1.67;;;0.90;;
72501;SDS011;60524;49.874;8.652;2023-04-23T14:44:51;3.07;;;1.40;;
72501;SDS011;60524;49.874;8.652;2023-04-23T14:47:20;3.80;;;1.83;;
72501;SDS011;60524;49.874;8.652;2023-04-23T14:49:45;1.73;;;0.90;;
72501;SDS011;60524;49.874;8.652;2023-04-23T14:52:11;4.30;;;1.30;;